Time;durP1;ratioP1;P1;durP2;ratioP2;P2;SDS_P1;SDS_P2;PMS_P1;PMS_P2;Temp;Humidity;BMP_temperature;BMP_pressure;BME280_temperature;BME280_humidity;BME280_pressure;Samples;Min_cycle;Max_cycle;Signal;HPM_P1;HPM_P2
2023/01/28 00:01:54;;;;;;;4.43;3.15;;;27.70;66.80;;;;;;4105208;28;20046;-49
2023/01/28 00:04:17;;;;;;;4.03;2.90;;;27.80;67.00;;;;;;4104206;28;20054;-48
2023/01/28 00:06:39;;;;;;;3.85;3.00;;;27.80;66.90;;;;;;4104800;28;20038;-46
2023/01/28 00:09:02;;;;;;;4.32;3.03;;;27.80;66.80;;;;;;4100844;28;20506;-46
2023/01/28 00:11:25;;;;;;;4.32;3.08;;;27.80;66.80;;;;;;4092631;28;20105;-47
2023/01/28 00:13:56;;;;;;;4.63;3.50;;;27.90;66.90;;;;;;4094762;28;20074;-45
2023/01/28 00:16:21;;;;;;;4.15;3.05;;;27.90;66.80;;;;;;4110098;28;20058;-45
2023/01/28 00:18:43;;;;;;;4.68;3.10;;;27.90;66.80;;;;;;4101965;28;20492;-47
2023/01/28 00:21:15;;;;;;;4.80;3.40;;;27.90;66.80;;;;;;4103033;28;20097;-46
2023/01/28 00:23:39;;;;;;;3.95;2.97;;;28.00;66.80;;;;;;4095373;28;20039;-45
2023/01/28 00:26:05;;;;;;;4.70;3.38;;;28.00;66.70;;;;;;4099388;28;20466;-47
2023/01/28 00:28:27;;;;;;;4.15;3.08;;;28.00;66.70;;;;;;4084832;28;20130;-45
2023/01/28 00:30:50;;;;;;;4.38;3.47;;;28.00;66.70;;;;;;4103498;28;20039;-45
2023/01/28 00:33:12;;;;;;;4.20;3.17;;;28.00;66.70;;;;;;4100157;28;20422;-48
2023/01/28 00:35:35;;;;;;;3.95;3.03;;;28.10;66.70;;;;;;4101165;28;20541;-47
2023/01/28 00:37:59;;;;;;;4.22;3.15;;;28.10;66.70;;;;;;4096964;28;20424;-49
2023/01/28 00:40:21;;;;;;;4.13;3.30;;;28.10;66.70;;;;;;4094084;28;20058;-45
2023/01/28 00:42:43;;;;;;;4.57;3.25;;;28.10;66.70;;;;;;4097343;28;20062;-50
2023/01/28 00:45:06;;;;;;;4.63;3.50;;;28.10;66.70;;;;;;4105915;28;20071;-50
2023/01/28 00:47:28;;;;;;;4.17;3.07;;;28.20;66.80;;;;;;4105792;28;20062;-51
2023/01/28 00:49:51;;;;;;;4.22;3.38;;;28.20;66.70;;;;;;4096758;28;20289;-49
2023/01/28 00:52:13;;;;;;;4.10;3.22;;;28.20;66.70;;;;;;4091774;28;20047;-49
2023/01/28 00:54:36;;;;;;;5.15;3.50;;;28.20;66.70;;;;;;4096360;28;20062;-49
2023/01/28 00:56:58;;;;;;;4.90;3.73;;;28.20;66.60;;;;;;4107205;28;20043;-51
2023/01/28 00:59:21;;;;;;;4.93;3.88;;;28.30;66.70;;;;;;4099080;28;20418;-45
2023/01/28 01:01:43;;;;;;;4.63;3.58;;;28.20;66.60;;;;;;4092367;28;20425;-51
2023/01/28 01:04:06;;;;;;;5.47;4.07;;;28.30;66.70;;;;;;4106215;28;20576;-50
2023/01/28 01:06:34;;;;;;;4.68;3.88;;;28.30;66.70;;;;;;4108675;28;20410;-48
2023/01/28 01:08:56;;;;;;;4.75;3.58;;;28.30;66.70;;;;;;4105644;28;20035;-50
2023/01/28 01:11:19;;;;;;;4.53;3.22;;;28.30;66.60;;;;;;4105047;28;20195;-48
2023/01/28 01:13:41;;;;;;;4.60;3.25;;;28.40;66.60;;;;;;4096771;28;20043;-49
2023/01/28 01:16:11;;;;;;;4.32;3.53;;;28.40;66.60;;;;;;4094322;28;20122;-46
2023/01/28 01:18:34;;;;;;;5.05;3.65;;;28.50;66.60;;;;;;4101647;28;20426;-48
2023/01/28 01:20:57;;;;;;;4.72;3.25;;;28.50;66.60;;;;;;4101228;28;20102;-48
2023/01/28 01:23:20;;;;;;;4.65;3.72;;;28.50;66.60;;;;;;4105641;28;20047;-47
2023/01/28 01:25:42;;;;;;;5.50;3.55;;;28.50;66.50;;;;;;4106881;28;20133;-45
2023/01/28 01:28:04;;;;;;;4.38;3.58;;;28.50;66.60;;;;;;4099667;28;20327;-48
2023/01/28 01:30:27;;;;;;;4.40;3.55;;;28.60;66.60;;;;;;4099268;28;20050;-44
2023/01/28 01:32:49;;;;;;;5.45;3.95;;;28.60;66.50;;;;;;4102110;28;20042;-46
2023/01/28 01:35:12;;;;;;;4.20;3.33;;;28.60;66.60;;;;;;4098646;28;20422;-45
2023/01/28 01:37:35;;;;;;;4.32;3.35;;;28.60;66.60;;;;;;4105273;28;20093;-48
2023/01/28 01:39:57;;;;;;;4.32;3.55;;;28.70;66.60;;;;;;4103965;28;20042;-47
2023/01/28 01:42:20;;;;;;;5.25;3.53;;;28.70;66.60;;;;;;4104196;28;20102;-46
2023/01/28 01:45:16;;;;;;;4.63;3.17;;;28.70;66.50;;;;;;4098428;28;20121;-51
2023/01/28 01:47:42;;;;;;;4.18;3.40;;;28.70;67.00;;;;;;4100750;28;20533;-48
2023/01/28 01:50:25;;;;;;;5.03;3.67;;;28.70;66.50;;;;;;4097704;28;20047;-47
2023/01/28 01:52:55;;;;;;;4.15;3.50;;;28.80;66.60;;;;;;4089628;28;20452;-49
2023/01/28 01:55:20;;;;;;;4.35;3.42;;;28.80;66.60;;;;;;4109458;28;20526;-46
2023/01/28 01:57:45;;;;;;;4.68;3.92;;;28.80;66.50;;;;;;4107733;28;20138;-48
2023/01/28 02:00:08;;;;;;;4.63;3.85;;;28.80;66.70;;;;;;4106596;28;20108;-47
2023/01/28 02:02:33;;;;;;;4.45;3.53;;;28.90;66.70;;;;;;4104768;28;20081;-52
2023/01/28 02:04:56;;;;;;;4.45;3.60;;;28.90;66.70;;;;;;4109202;28;20121;-46
2023/01/28 02:07:19;;;;;;;4.80;3.80;;;28.90;66.70;;;;;;4106117;28;20065;-44
2023/01/28 02:09:41;;;;;;;4.15;3.38;;;29.00;66.80;;;;;;4108469;28;20045;-47
2023/01/28 02:12:09;;;;;;;4.63;3.53;;;29.00;66.70;;;;;;4105995;28;20054;-47
2023/01/28 02:14:36;;;;;;;4.63;3.53;;;29.00;66.50;;;;;;4100337;28;20034;-46
2023/01/28 02:17:00;;;;;;;5.05;3.65;;;29.10;66.50;;;;;;4082883;28;20452;-46
2023/01/28 02:19:31;;;;;;;5.00;3.97;;;29.10;66.50;;;;;;4108088;28;20867;-50
2023/01/28 02:22:21;;;;;;;5.57;4.30;;;29.10;66.60;;;;;;4102334;28;20034;-49
2023/01/28 02:25:02;;;;;;;5.05;4.07;;;29.20;66.70;;;;;;4097731;28;21086;-48
2023/01/28 02:28:00;;;;;;;4.70;4.00;;;29.20;66.70;;;;;;4102349;28;20043;-48
2023/01/28 02:30:38;;;;;;;5.53;4.30;;;29.20;66.60;;;;;;4102442;28;20142;-46
2023/01/28 02:33:07;;;;;;;5.38;4.00;;;29.30;66.60;;;;;;4106538;28;20035;-47
2023/01/28 02:35:37;;;;;;;4.93;4.15;;;29.30;66.60;;;;;;4106330;28;20056;-48
2023/01/28 02:38:31;;;;;;;5.78;4.68;;;29.40;66.80;;;;;;4103691;28;20313;-48
2023/01/28 02:41:08;;;;;;;5.68;4.82;;;29.40;66.90;;;;;;4101881;28;20587;-47
2023/01/28 02:43:34;;;;;;;5.80;4.38;;;29.50;66.90;;;;;;4093555;28;20039;-50
2023/01/28 02:48:36;;;;;;;5.28;4.68;;;29.50;66.90;;;;;;4093810;28;20039;-50
2023/01/28 02:51:24;;;;;;;5.20;4.38;;;29.60;67.00;;;;;;4092785;28;20054;-46
2023/01/28 02:54:18;;;;;;;5.13;4.03;;;29.60;66.80;;;;;;4092627;28;20538;-52
2023/01/28 02:57:02;;;;;;;6.53;4.93;;;29.60;66.80;;;;;;4098940;28;20101;-45
2023/01/28 02:59:40;;;;;;;5.35;4.45;;;29.70;67.60;;;;;;4097606;28;20055;-44
2023/01/28 03:02:49;;;;;;;4.97;4.40;;;29.70;67.00;;;;;;4106958;28;20396;-49
2023/01/28 03:05:15;;;;;;;5.03;4.45;;;29.70;67.10;;;;;;4107210;28;20560;-46
2023/01/28 03:07:38;;;;;;;5.38;4.57;;;29.80;67.00;;;;;;4103180;28;20039;-45
2023/01/28 03:10:04;;;;;;;5.18;4.60;;;29.80;67.60;;;;;;4083752;28;20404;-48
2023/01/28 03:37:22;;;;;;;5.32;4.70;;;29.10;60.30;;;;;;4094563;28;20129;-45
2023/01/28 03:39:45;;;;;;;5.63;5.03;;;29.00;60.00;;;;;;4098689;28;20051;-50
2023/01/28 03:42:09;;;;;;;5.00;4.30;;;28.90;59.80;;;;;;4099559;28;20633;-50
2023/01/28 03:47:13;;;;;;;5.18;4.25;;;28.70;59.30;;;;;;4099714;28;20047;-50
2023/01/28 03:49:37;;;;;;;4.50;3.95;;;28.60;59.20;;;;;;4102411;28;20046;-44
2023/01/28 03:52:00;;;;;;;4.72;4.22;;;28.50;59.30;;;;;;4101128;28;20035;-46
2023/01/28 03:54:22;;;;;;;4.55;3.65;;;28.40;59.20;;;;;;4101928;28;20058;-46
2023/01/28 03:56:44;;;;;;;4.28;3.53;;;28.30;59.00;;;;;;4098457;28;20031;-46
2023/01/28 03:59:07;;;;;;;4.22;3.83;;;28.20;59.10;;;;;;4101204;28;20082;-47
2023/01/28 04:01:30;;;;;;;6.03;4.20;;;28.10;59.10;;;;;;4103629;28;20041;-46
2023/01/28 04:03:52;;;;;;;4.72;3.50;;;28.00;59.20;;;;;;4089593;28;20039;-49
2023/01/28 04:06:14;;;;;;;5.95;4.10;;;28.00;59.20;;;;;;4109001;28;20518;-45
2023/01/28 04:08:37;;;;;;;5.65;3.97;;;27.90;59.30;;;;;;4107392;28;20074;-48
2023/01/28 04:11:19;;;;;;;5.90;4.25;;;27.80;59.40;;;;;;4093650;28;20101;-51
2023/01/28 04:13:42;;;;;;;4.68;3.80;;;27.70;59.40;;;;;;4094068;28;20042;-47
2023/01/28 04:16:05;;;;;;;4.25;3.40;;;27.70;59.60;;;;;;4094998;28;20117;-45
2023/01/28 04:18:28;;;;;;;4.30;3.15;;;27.60;59.70;;;;;;4094877;28;20045;-49
2023/01/28 04:20:50;;;;;;;4.00;3.35;;;27.60;59.80;;;;;;4101011;28;20582;-46
2023/01/28 04:23:12;;;;;;;5.85;3.15;;;27.50;59.40;;;;;;4094976;28;20043;-50
2023/01/28 04:25:35;;;;;;;3.85;2.88;;;27.40;59.10;;;;;;4094613;28;20051;-55
2023/01/28 04:27:57;;;;;;;5.30;3.00;;;27.30;59.00;;;;;;4090662;28;20459;-47
2023/01/28 04:30:21;;;;;;;4.10;2.88;;;27.20;59.20;;;;;;4092582;28;20496;-45
2023/01/28 04:32:45;;;;;;;4.82;2.92;;;27.10;59.20;;;;;;4090743;28;20471;-48
2023/01/28 04:35:08;;;;;;;5.07;2.90;;;27.00;59.30;;;;;;4100128;28;20054;-43
2023/01/28 04:37:31;;;;;;;4.43;2.40;;;27.00;59.10;;;;;;4094660;28;20038;-50
2023/01/28 04:39:53;;;;;;;3.20;2.50;;;26.90;59.40;;;;;;4095041;28;20043;-48
2023/01/28 04:42:15;;;;;;;3.70;2.42;;;26.80;59.30;;;;;;4093651;28;20069;-51
2023/01/28 04:44:38;;;;;;;3.42;2.25;;;26.70;59.20;;;;;;4092048;28;20419;-47
2023/01/28 04:47:00;;;;;;;5.75;2.47;;;26.70;59.20;;;;;;4093139;28;20443;-49
2023/01/28 04:49:22;;;;;;;3.33;2.17;;;26.60;59.40;;;;;;4098760;28;20054;-48
2023/01/28 04:51:45;;;;;;;4.05;2.40;;;26.60;59.40;;;;;;4099170;28;20042;-48
2023/01/28 04:54:08;;;;;;;3.28;1.98;;;26.60;59.20;;;;;;4108178;28;20054;-46
2023/01/28 04:56:30;;;;;;;6.50;2.50;;;26.60;59.40;;;;;;4105329;28;20113;-51
2023/01/28 04:58:52;;;;;;;4.70;1.85;;;26.60;59.30;;;;;;4101829;28;20481;-47
2023/01/28 05:01:15;;;;;;;5.78;2.15;;;26.50;59.60;;;;;;4097611;28;20139;-45
2023/01/28 05:03:37;;;;;;;5.55;2.08;;;26.50;59.00;;;;;;4096451;28;20786;-49
2023/01/28 05:06:00;;;;;;;3.13;2.30;;;26.40;59.60;;;;;;4091949;28;20047;-46
2023/01/28 05:08:22;;;;;;;3.40;2.08;;;26.40;59.70;;;;;;4095578;28;20164;-44
2023/01/28 05:10:45;;;;;;;3.53;1.95;;;26.40;59.70;;;;;;4097983;28;20519;-45
2023/01/28 05:13:07;;;;;;;3.08;2.03;;;26.30;59.60;;;;;;4108224;28;20035;-47
2023/01/28 05:15:30;;;;;;;4.18;2.20;;;26.30;59.70;;;;;;4096184;28;20495;-48
2023/01/28 05:17:58;;;;;;;2.88;2.00;;;26.20;59.70;;;;;;4089995;28;20466;-45
2023/01/28 05:20:21;;;;;;;3.83;2.30;;;26.20;59.70;;;;;;4103863;28;20133;-52
2023/01/28 05:22:43;;;;;;;2.33;1.73;;;26.20;59.60;;;;;;4104203;28;20118;-47
2023/01/28 05:25:07;;;;;;;3.28;2.00;;;26.20;59.60;;;;;;4103258;28;20043;-48
2023/01/28 05:27:31;;;;;;;2.90;2.00;;;26.20;59.50;;;;;;4098816;28;20078;-48
2023/01/28 05:29:53;;;;;;;3.90;2.22;;;26.10;59.50;;;;;;4098644;28;20061;-48
2023/01/28 05:32:16;;;;;;;2.90;2.00;;;26.10;59.40;;;;;;4103623;28;20035;-45
2023/01/28 05:34:38;;;;;;;3.15;1.80;;;26.10;59.60;;;;;;4102901;28;20049;-52
2023/01/28 05:37:01;;;;;;;4.43;2.08;;;26.10;59.70;;;;;;4102010;28;20395;-47
2023/01/28 05:39:23;;;;;;;3.97;2.00;;;26.10;59.80;;;;;;4103648;28;20222;-47
2023/01/28 05:41:46;;;;;;;2.78;1.70;;;26.10;59.90;;;;;;4108866;28;20050;-44
2023/01/28 05:44:08;;;;;;;3.30;1.70;;;26.10;59.60;;;;;;4109829;28;20039;-45
2023/01/28 05:46:30;;;;;;;3.28;1.90;;;26.10;59.80;;;;;;4105558;28;20043;-47
2023/01/28 07:01:28;;;;;;;3.90;2.50;;;26.40;59.70;;;;;;4137648;28;20545;-41
2023/01/28 07:03:50;;;;;;;8.43;3.58;;;26.30;59.00;;;;;;4139571;28;20038;-40
2023/01/28 07:06:13;;;;;;;4.22;2.92;;;26.30;58.90;;;;;;4140764;28;20152;-41
2023/01/28 07:08:36;;;;;;;5.13;3.20;;;26.20;58.90;;;;;;4134638;28;20048;-40
2023/01/28 07:10:59;;;;;;;4.22;2.85;;;26.20;58.90;;;;;;4141255;28;20560;-40
2023/01/28 07:13:22;;;;;;;4.43;2.67;;;26.10;58.90;;;;;;4139494;28;20049;-40
2023/01/28 07:15:44;;;;;;;5.07;2.85;;;26.10;59.20;;;;;;4137152;28;20038;-41
2023/01/28 07:18:06;;;;;;;3.70;2.28;;;26.00;59.10;;;;;;4132111;28;20489;-41
2023/01/28 07:20:29;;;;;;;3.25;2.10;;;25.90;59.00;;;;;;4139002;28;20050;-43
2023/01/28 07:22:51;;;;;;;8.27;2.55;;;25.90;59.30;;;;;;4129389;28;20565;-40
2023/01/28 07:25:15;;;;;;;4.03;2.00;;;25.80;59.40;;;;;;4120262;28;20048;-41
2023/01/28 07:27:37;;;;;;;6.57;2.30;;;25.80;59.40;;;;;;4129500;28;20110;-40
2023/01/28 07:30:00;;;;;;;6.75;2.10;;;25.70;59.60;;;;;;4134821;28;20080;-41
2023/01/28 07:32:22;;;;;;;4.88;2.30;;;25.70;59.80;;;;;;4138985;28;20064;-47
2023/01/28 07:34:44;;;;;;;3.88;2.03;;;25.60;59.90;;;;;;4133698;28;20098;-40
2023/01/28 07:37:07;;;;;;;4.22;2.00;;;25.60;60.00;;;;;;4138497;28;20041;-41
2023/01/28 07:39:29;;;;;;;2.83;1.85;;;25.50;60.00;;;;;;4140609;28;20049;-42
2023/01/28 07:41:55;;;;;;;4.60;1.90;;;25.40;59.40;;;;;;4130771;28;20125;-41
2023/01/28 07:44:17;;;;;;;4.25;1.98;;;25.40;59.70;;;;;;4132108;28;20491;-44
2023/01/28 07:46:40;;;;;;;3.70;2.05;;;25.40;59.70;;;;;;4134863;28;20484;-41
2023/01/28 07:49:02;;;;;;;4.45;1.90;;;25.40;59.00;;;;;;4134997;28;20519;-40
2023/01/28 07:51:24;;;;;;;2.50;1.60;;;25.40;59.20;;;;;;4132838;28;20607;-42
2023/01/28 07:53:47;;;;;;;5.57;2.05;;;25.40;59.30;;;;;;4134905;28;20108;-45
2023/01/28 07:56:09;;;;;;;3.85;2.22;;;25.30;59.30;;;;;;4133114;28;20040;-43
2023/01/28 07:58:35;;;;;;;3.00;1.52;;;25.30;59.50;;;;;;4126838;28;20117;-42
2023/01/28 08:00:58;;;;;;;4.90;2.38;;;25.20;59.40;;;;;;4129525;28;20049;-43
2023/01/28 08:03:20;;;;;;;2.50;1.38;;;25.10;59.60;;;;;;4132494;28;20049;-41
2023/01/28 08:05:46;;;;;;;14.38;2.00;;;25.10;59.60;;;;;;4130507;28;20126;-42
2023/01/28 08:08:09;;;;;;;2.40;1.77;;;25.00;59.40;;;;;;4132758;28;20045;-41
2023/01/28 08:10:32;;;;;;;4.75;1.90;;;24.90;59.60;;;;;;4129159;28;20034;-40
2023/01/28 08:12:57;;;;;;;5.30;1.70;;;25.00;59.40;;;;;;4132579;28;20452;-40
2023/01/28 08:15:20;;;;;;;4.03;1.85;;;24.90;58.90;;;;;;4125731;28;20482;-39
2023/01/28 08:17:43;;;;;;;2.80;1.98;;;24.80;59.60;;;;;;4132170;28;20553;-40
2023/01/28 08:20:06;;;;;;;3.58;1.50;;;24.80;58.70;;;;;;4127553;28;20073;-42
2023/01/28 08:22:28;;;;;;;2.10;1.33;;;24.80;58.60;;;;;;4127234;28;20030;-41
2023/01/28 08:24:51;;;;;;;2.83;1.42;;;24.80;58.60;;;;;;4127327;28;20533;-41
2023/01/28 08:27:13;;;;;;;2.97;1.75;;;24.70;58.80;;;;;;4127977;28;20328;-40
2023/01/28 08:29:35;;;;;;;10.05;2.97;;;24.60;59.00;;;;;;4131146;28;20053;-39
2023/01/28 08:31:58;;;;;;;14.60;3.05;;;24.60;59.10;;;;;;4131061;28;20045;-40
2023/01/28 08:34:20;;;;;;;18.40;3.08;;;24.60;59.10;;;;;;4137909;28;20041;-39
2023/01/28 08:36:43;;;;;;;15.45;2.88;;;24.60;59.40;;;;;;4132528;28;20458;-40
2023/01/28 08:39:06;;;;;;;6.00;2.00;;;24.60;58.90;;;;;;4131703;28;20061;-42
2023/01/28 08:41:30;;;;;;;4.32;2.40;;;24.50;58.90;;;;;;4127697;28;20438;-40
2023/01/28 08:43:52;;;;;;;7.88;2.97;;;24.50;58.90;;;;;;4125999;28;20233;-39
2023/01/28 08:46:15;;;;;;;6.25;2.05;;;24.40;58.70;;;;;;4132093;28;20046;-39
2023/01/28 08:48:37;;;;;;;5.10;1.70;;;24.40;59.10;;;;;;4133322;28;20044;-46
2023/01/28 08:51:00;;;;;;;4.20;1.90;;;24.40;59.20;;;;;;4133707;28;20034;-40
2023/01/28 08:53:22;;;;;;;3.03;1.50;;;24.40;59.10;;;;;;4136404;28;20349;-40
2023/01/28 08:55:46;;;;;;;3.55;2.00;;;24.30;58.90;;;;;;4134759;28;20143;-43
2023/01/28 08:58:15;;;;;;;4.13;1.90;;;24.30;58.90;;;;;;4129376;28;20053;-42
2023/01/28 09:00:39;;;;;;;2.78;2.00;;;24.30;59.00;;;;;;4133358;28;20068;-43
2023/01/28 09:03:02;;;;;;;2.30;1.60;;;24.20;59.00;;;;;;4133538;28;20042;-42
2023/01/28 09:05:24;;;;;;;2.40;1.67;;;24.20;59.00;;;;;;4132066;28;20046;-41
2023/01/28 09:07:48;;;;;;;3.08;1.90;;;24.20;59.20;;;;;;4132095;28;20044;-41
2023/01/28 09:10:11;;;;;;;5.05;2.00;;;24.10;59.20;;;;;;4133198;28;20065;-39
2023/01/28 09:12:33;;;;;;;3.40;1.77;;;24.10;59.50;;;;;;4125397;28;20537;-40
2023/01/28 09:14:56;;;;;;;2.60;1.98;;;24.00;59.50;;;;;;4129266;28;20070;-42
2023/01/28 09:17:19;;;;;;;3.20;1.80;;;24.00;59.70;;;;;;4127352;28;20116;-42
2023/01/28 09:19:42;;;;;;;3.10;1.60;;;24.00;59.80;;;;;;4128909;28;20486;-41
2023/01/28 09:22:04;;;;;;;3.70;1.90;;;23.90;59.70;;;;;;4128058;28;20470;-41
2023/01/28 09:24:27;;;;;;;3.78;2.10;;;23.90;59.70;;;;;;4130271;28;20049;-41
2023/01/28 09:26:50;;;;;;;3.88;1.95;;;23.80;59.70;;;;;;4128588;28;20046;-40
2023/01/28 09:29:12;;;;;;;6.00;1.83;;;23.80;59.70;;;;;;4129318;28;20482;-41
2023/01/28 09:31:35;;;;;;;2.80;1.85;;;23.80;59.80;;;;;;4126851;28;20096;-40
2023/01/28 09:33:57;;;;;;;3.13;1.90;;;23.80;59.50;;;;;;4127973;28;20046;-41
2023/01/28 09:36:20;;;;;;;3.15;1.80;;;23.70;59.60;;;;;;4128057;28;20347;-40
2023/01/28 09:38:42;;;;;;;4.35;1.95;;;23.70;59.70;;;;;;4127019;28;20034;-40
2023/01/28 09:41:42;;;;;;;4.82;2.05;;;23.60;59.80;;;;;;4132082;28;20517;-41
2023/01/28 09:44:50;;;;;;;3.65;1.83;;;23.60;59.60;;;;;;4122451;28;20176;-40
2023/01/28 09:47:25;;;;;;;6.13;2.42;;;23.50;60.30;;;;;;4128174;28;20101;-41
2023/01/28 09:49:51;;;;;;;5.15;2.05;;;23.60;61.50;;;;;;4127618;28;20462;-39
2023/01/28 09:52:17;;;;;;;4.68;2.08;;;23.80;62.40;;;;;;4116767;28;20038;-40
2023/01/28 09:55:19;;;;;;;3.80;2.00;;;24.00;63.40;;;;;;4132160;28;20072;-40
2023/01/28 09:57:46;;;;;;;5.20;2.08;;;24.20;63.70;;;;;;4125144;28;20050;-39
2023/01/28 10:00:18;;;;;;;4.78;2.10;;;24.40;64.50;;;;;;4125595;28;20049;-41
2023/01/28 10:03:07;;;;;;;5.47;2.03;;;24.60;64.50;;;;;;4128901;28;20049;-40
2023/01/28 10:06:08;;;;;;;7.57;1.67;;;24.80;64.80;;;;;;4128480;28;20034;-42
2023/01/28 10:08:59;;;;;;;10.30;2.28;;;25.00;64.80;;;;;;4104899;28;20037;-40
2023/01/28 10:11:49;;;;;;;7.82;1.83;;;25.20;65.00;;;;;;4127093;28;20037;-41
2023/01/28 10:14:23;;;;;;;14.02;2.53;;;25.40;65.10;;;;;;4132839;28;20046;-44
2023/01/28 10:16:48;;;;;;;;;;;25.50;65.40;;;;;;4133179;28;20061;-40
2023/01/28 10:19:22;;;;;;;7.60;2.30;;;25.60;65.60;;;;;;4129101;28;20266;-41
2023/01/28 10:21:59;;;;;;;7.70;1.90;;;25.70;65.70;;;;;;4132705;28;20036;-41
2023/01/28 10:24:31;;;;;;;4.40;1.73;;;25.80;65.80;;;;;;4130337;28;20038;-45
2023/01/28 10:26:55;;;;;;;5.30;1.40;;;25.90;65.70;;;;;;4130621;28;20142;-43
2023/01/28 10:29:21;;;;;;;4.28;2.00;;;26.00;66.00;;;;;;4128284;28;20042;-41
2023/01/28 10:32:15;;;;;;;6.30;1.70;;;26.10;66.00;;;;;;4131680;28;20669;-39
2023/01/28 10:34:38;;;;;;;3.92;1.63;;;26.20;65.90;;;;;;4129439;28;20111;-41
2023/01/28 10:37:00;;;;;;;9.23;1.73;;;26.30;65.90;;;;;;4134630;28;20037;-41
2023/01/28 10:39:25;;;;;;;3.95;1.23;;;26.40;65.90;;;;;;4133818;28;20854;-41
2023/01/28 10:41:47;;;;;;;4.78;1.50;;;26.50;66.00;;;;;;4132311;28;20165;-40
2023/01/28 10:44:18;;;;;;;4.72;1.70;;;26.50;65.80;;;;;;4132767;28;20030;-40
2023/01/28 10:46:45;;;;;;;6.72;1.45;;;26.60;65.80;;;;;;4130035;28;20129;-41
2023/01/28 10:49:26;;;;;;;10.02;2.03;;;26.70;65.80;;;;;;4131612;28;20034;-40
2023/01/28 10:51:48;;;;;;;10.02;1.65;;;26.70;65.90;;;;;;4133847;28;20034;-40
2023/01/28 10:54:25;;;;;;;7.97;1.35;;;26.80;65.80;;;;;;4128349;28;20068;-46
2023/01/28 10:57:11;;;;;;;7.95;2.10;;;26.90;65.90;;;;;;4131091;28;20053;-40
2023/01/28 10:59:40;;;;;;;10.82;1.42;;;26.90;66.30;;;;;;4133139;28;20046;-40
2023/01/28 11:02:19;;;;;;;5.88;1.50;;;26.90;65.60;;;;;;4129608;28;20111;-41
2023/01/28 11:04:41;;;;;;;6.82;1.63;;;26.90;65.80;;;;;;4129709;28;20450;-41
2023/01/28 11:07:06;;;;;;;5.53;1.13;;;26.90;66.00;;;;;;4133804;28;20405;-40
2023/01/28 11:09:37;;;;;;;5.55;1.38;;;27.00;66.20;;;;;;4130197;28;20038;-42
2023/01/28 11:12:19;;;;;;;17.00;2.67;;;27.00;66.30;;;;;;4133700;28;20630;-40
2023/01/28 11:14:55;;;;;;;6.80;1.48;;;27.00;66.20;;;;;;4137527;28;20038;-40
2023/01/28 11:17:21;;;;;;;7.88;1.58;;;27.10;66.20;;;;;;4137433;28;20074;-40
2023/01/28 11:19:44;;;;;;;8.38;1.55;;;27.10;66.30;;;;;;4143279;28;20060;-41
2023/01/28 11:22:19;;;;;;;7.32;1.60;;;27.10;66.40;;;;;;4129971;28;20057;-40
2023/01/28 11:24:42;;;;;;;5.05;1.25;;;27.20;66.40;;;;;;4137083;28;20048;-45
2023/01/28 11:27:17;;;;;;;3.15;1.10;;;27.20;66.40;;;;;;4131496;28;20161;-49
2023/01/28 11:29:41;;;;;;;3.67;1.10;;;27.20;66.40;;;;;;4141082;28;20410;-44
2023/01/28 11:32:03;;;;;;;3.03;0.90;;;27.30;66.50;;;;;;4139580;28;20116;-40
2023/01/28 11:34:29;;;;;;;2.63;1.02;;;27.30;66.50;;;;;;4139355;28;20377;-42
2023/01/28 11:36:54;;;;;;;4.05;0.90;;;27.30;66.40;;;;;;4137822;28;20081;-43
2023/01/28 11:39:27;;;;;;;3.35;1.13;;;27.40;66.40;;;;;;4140095;28;20717;-44
2023/01/28 11:41:50;;;;;;;3.67;0.95;;;27.40;66.50;;;;;;4128856;28;20053;-39
2023/01/28 11:44:18;;;;;;;3.83;1.00;;;27.50;66.60;;;;;;4140457;28;20041;-39
2023/01/28 11:46:50;;;;;;;2.67;0.90;;;27.50;66.60;;;;;;4116173;28;20038;-39
2023/01/28 11:49:45;;;;;;;1.77;0.70;;;27.50;66.60;;;;;;4140288;28;20081;-40
2023/01/28 11:52:25;;;;;;;3.10;1.10;;;27.50;66.60;;;;;;4138429;28;20111;-41
2023/01/28 11:55:09;;;;;;;2.20;1.10;;;27.50;66.70;;;;;;4133406;28;20041;-41
2023/01/28 11:57:38;;;;;;;;;;;27.60;66.80;;;;;;4114221;28;20480;-45
2023/01/28 12:00:18;;;;;;;2.88;1.00;;;27.60;66.80;;;;;;4134121;28;20412;-43
2023/01/28 12:03:09;;;;;;;1.02;0.80;;;27.70;66.90;;;;;;4137587;28;20096;-41
2023/01/28 12:05:56;;;;;;;1.98;0.80;;;27.70;67.00;;;;;;4139895;28;20049;-41
2023/01/28 12:08:38;;;;;;;2.78;0.80;;;27.70;67.00;;;;;;4138923;28;20081;-42
2023/01/28 12:11:19;;;;;;;2.35;0.80;;;27.70;67.10;;;;;;4128254;28;20038;-40
2023/01/28 12:13:55;;;;;;;1.45;1.20;;;27.80;67.20;;;;;;4130391;28;20772;-46
2023/01/28 12:16:44;;;;;;;2.85;0.70;;;27.80;67.30;;;;;;4123782;28;20050;-42
2023/01/28 12:19:38;;;;;;;1.75;0.82;;;27.80;67.50;;;;;;4139776;28;20045;-40
2023/01/28 12:22:24;;;;;;;1.58;0.60;;;27.90;67.40;;;;;;4130360;28;20116;-41
2023/01/28 12:24:57;;;;;;;1.88;0.70;;;27.90;67.30;;;;;;4138130;28;20565;-41
2023/01/28 12:27:39;;;;;;;2.30;0.75;;;27.90;67.20;;;;;;4140729;28;20503;-41
2023/01/28 12:30:23;;;;;;;1.33;0.80;;;27.90;67.20;;;;;;4140350;28;20073;-41
2023/01/28 12:33:10;;;;;;;2.58;0.88;;;27.90;67.30;;;;;;4126091;28;20058;-43
2023/01/28 12:35:50;;;;;;;2.38;1.00;;;28.00;67.30;;;;;;4134480;28;20044;-44
2023/01/28 12:38:42;;;;;;;2.55;1.13;;;28.00;67.40;;;;;;4140914;28;20095;-42
2023/01/28 12:41:15;;;;;;;3.13;1.05;;;28.00;67.50;;;;;;4140510;28;20111;-41
2023/01/28 12:43:41;;;;;;;2.72;0.82;;;28.00;67.60;;;;;;4126384;28;20108;-44
2023/01/28 12:46:12;;;;;;;2.60;0.90;;;28.00;67.60;;;;;;4141162;28;20038;-42
2023/01/28 12:49:13;;;;;;;2.85;1.08;;;28.00;67.60;;;;;;4140283;28;20061;-44
2023/01/28 12:51:54;;;;;;;1.73;0.60;;;28.10;67.60;;;;;;4136563;28;20038;-43
2023/01/28 12:54:28;;;;;;;2.42;0.77;;;28.10;67.60;;;;;;4136722;28;20050;-43
2023/01/28 12:56:55;;;;;;;0.98;0.75;;;28.10;67.60;;;;;;4139621;28;20115;-41
2023/01/28 12:59:24;;;;;;;3.63;1.05;;;28.10;67.60;;;;;;4131271;28;20053;-42
2023/01/28 13:02:15;;;;;;;1.90;0.88;;;28.20;67.60;;;;;;4139447;28;20220;-40
2023/01/28 13:05:10;;;;;;;1.88;1.23;;;28.20;67.60;;;;;;4139206;28;20073;-40
2023/01/28 13:07:49;;;;;;;1.20;0.70;;;28.20;67.60;;;;;;4136284;28;20056;-42
2023/01/28 13:10:17;;;;;;;2.38;0.90;;;28.20;67.60;;;;;;4138768;28;20450;-50
2023/01/28 13:12:41;;;;;;;1.45;0.85;;;28.20;67.60;;;;;;4137666;28;20037;-43
2023/01/28 13:15:03;;;;;;;;;;;28.30;67.70;;;;;;4123656;28;20061;-41
2023/01/28 13:17:28;;;;;;;1.02;0.63;;;28.30;67.60;;;;;;4137913;28;19919;-49
2023/01/28 13:19:51;;;;;;;0.85;0.60;;;28.30;67.60;;;;;;4141982;28;20053;-43
2023/01/28 13:22:33;;;;;;;2.80;0.82;;;28.30;67.70;;;;;;4132540;28;20088;-42
2023/01/28 13:24:56;;;;;;;1.92;1.05;;;28.30;67.80;;;;;;4133666;28;20069;-44
2023/01/28 13:27:27;;;;;;;1.85;1.00;;;28.30;67.90;;;;;;4137969;28;20037;-47
2023/01/28 13:30:06;;;;;;;3.30;1.00;;;28.30;67.80;;;;;;4133264;28;20037;-45
2023/01/28 13:32:32;;;;;;;2.42;0.82;;;28.40;67.80;;;;;;4128939;28;20101;-47
2023/01/28 13:35:01;;;;;;;1.25;0.70;;;28.40;67.80;;;;;;4130031;28;20041;-45
2023/01/28 13:37:44;;;;;;;1.75;0.70;;;28.40;67.80;;;;;;4125534;28;20041;-43
2023/01/28 13:40:12;;;;;;;3.33;0.93;;;28.40;67.90;;;;;;4129743;28;20070;-44
2023/01/28 13:42:34;;;;;;;1.95;0.80;;;28.40;67.90;;;;;;4129939;28;20044;-41
2023/01/28 13:45:14;;;;;;;1.58;0.98;;;28.40;67.90;;;;;;4129087;28;20113;-47
2023/01/28 13:47:37;;;;;;;1.83;0.77;;;28.40;68.00;;;;;;4130523;28;20030;-46
2023/01/28 13:50:05;;;;;;;1.83;0.60;;;28.40;68.00;;;;;;4145151;28;20562;-42
2023/01/28 13:52:52;;;;;;;1.60;0.80;;;28.40;67.90;;;;;;4140137;28;20096;-42
2023/01/28 13:55:20;;;;;;;1.40;0.95;;;28.40;68.00;;;;;;4132258;28;20049;-44
2023/01/28 13:58:33;;;;;;;1.67;0.85;;;28.50;68.10;;;;;;4135146;28;20046;-42
2023/01/28 14:01:25;;;;;;;1.73;0.95;;;28.50;68.10;;;;;;4135757;28;20084;-46
2023/01/28 14:04:00;;;;;;;2.20;1.13;;;28.50;68.20;;;;;;4135291;28;20041;-43
2023/01/28 14:06:59;;;;;;;1.83;1.00;;;28.50;68.20;;;;;;4131452;28;20046;-42
2023/01/28 14:09:46;;;;;;;1.80;0.80;;;28.50;68.10;;;;;;4134746;28;20045;-47
2023/01/28 14:12:30;;;;;;;1.55;1.10;;;28.50;68.10;;;;;;4137162;28;20042;-47
2023/01/28 14:15:13;;;;;;;3.58;0.80;;;28.50;68.20;;;;;;4142127;28;20113;-46
2023/01/28 14:17:56;;;;;;;2.00;1.00;;;28.60;68.20;;;;;;4136867;28;20034;-45
2023/01/28 14:20:38;;;;;;;2.72;0.93;;;28.60;68.10;;;;;;4136911;28;20193;-44
2023/01/28 14:23:06;;;;;;;1.48;0.85;;;28.60;68.10;;;;;;4131744;28;20045;-43
2023/01/28 14:26:07;;;;;;;3.55;0.80;;;28.60;68.10;;;;;;4138803;28;20050;-43
2023/01/28 14:28:44;;;;;;;1.42;0.88;;;28.60;68.10;;;;;;4125424;28;20108;-45
2023/01/28 14:31:24;;;;;;;1.63;0.70;;;28.60;68.20;;;;;;4140669;28;20140;-43
2023/01/28 14:33:47;;;;;;;2.00;1.00;;;28.60;68.10;;;;;;4136171;28;20092;-46
2023/01/28 14:36:14;;;;;;;1.63;0.93;;;28.70;68.20;;;;;;4138977;28;20050;-43
2023/01/28 14:38:40;;;;;;;2.03;0.88;;;28.70;68.10;;;;;;4141691;28;20562;-47
2023/01/28 14:41:04;;;;;;;2.67;1.08;;;28.70;68.20;;;;;;4140136;28;20058;-50